This is the latest recevied weather packets stored in our database for station/object K9CMP-13. If no packets are shown the sender has not sent any weather packets the latest 10 day(s).
| Time | Temp. | Humidity | Pressure | Rain* | Wind** | Luminosity | Snow |
|---|---|---|---|---|---|---|---|
| 1787808842 | 16.11° C | 97% | 1014.9 hPa | 0 mm | - | - | - |
| 1787807941 | 16.67° C | 98% | 1014.9 hPa | 0 mm | - | - | - |
| 1787807041 | 16.11° C | 98% | 1014.9 hPa | 0 mm | - | - | - |
| 1787805541 | 16.11° C | 97% | 1014.9 hPa | 0 mm | - | - | - |
| 1787802842 | 16.67° C | 96% | 1014.6 hPa | 0 mm | - | - | - |
| 1787801942 | 16.67° C | 95% | 1014.6 hPa | 0 mm | - | - | - |
| 1787801042 | 16.67° C | 94% | 1014.6 hPa | 0 mm | - | - | - |
| 1787800142 | 17.78° C | 93% | 1014.6 hPa | 0 mm | - | - | - |
| 1787799542 | 18.33° C | 93% | 1014.2 hPa | 0 mm | - | - | - |
| 1787798642 | 18.33° C | 92% | 1014.6 hPa | 0 mm | - | - | - |
| 1787797142 | 18.89° C | 91% | 1014.2 hPa | 0 mm | - | - | - |
| 1787795642 | 18.89° C | 89% | 1014.2 hPa | 0 mm | - | - | - |
| 1787793842 | 20° C | 87% | 1013.5 hPa | 0 mm | - | - | - |
| 1787792942 | 20° C | 86% | 1013.5 hPa | 0 mm | - | - | - |
| 1787792042 | 20.56° C | 85% | 1013.2 hPa | 0 mm | - | - | - |
| 1787789042 | 21.67° C | 81% | 1013.2 hPa | 0 mm | - | - | - |
| 1787785742 | 22.22° C | 77% | 1012.9 hPa | 0 mm | - | - | - |
| 1787784842 | 22.22° C | 76% | 1012.9 hPa | 0 mm | - | - | - |
| 1787783041 | 21.67° C | 79% | 1012.9 hPa | 0 mm | - | - | - |
| 1787781242 | 22.22° C | 81% | 1012.9 hPa | 0 mm | - | - | - |
| 1787780342 | 20.56° C | 84% | 1012.9 hPa | 0 mm | - | - | - |
| 1787779442 | 20.56° C | 85% | 1012.9 hPa | 0 mm | - | - | - |
| 1787778842 | 22.22° C | 78% | 1012.9 hPa | 0 mm | - | - | - |
| 1787777041 | 23.89° C | 71% | 1012.5 hPa | 0 mm | - | - | - |
| 1787770742 | 23.89° C | 68% | 1012.2 hPa | 0 mm | - | - | - |
* Rain latest hour (hover to see other rain measurements)
** Current wind speed in m/s (hover to see current wind gust speed)